Time;durP1;ratioP1;P1;durP2;ratioP2;P2;SDS_P1;SDS_P2;PMS_P1;PMS_P2;Temp;Humidity;BMP_temperature;BMP_pressure;BME280_temperature;BME280_humidity;BME280_pressure;Samples;Min_cycle;Max_cycle;Signal;HPM_P1;HPM_P2
2021/12/15 00:00:58;;;;;;;4.73;4.33;;;;;;;18.17;47.59;98422.69;4935513;28;20214;-86
2021/12/15 00:03:25;;;;;;;5.13;4.57;;;;;;;15.74;48.00;97969.97;4950138;28;20240;-86
2021/12/15 00:05:57;;;;;;;4.83;4.43;;;;;;;18.04;47.80;98405.00;4922694;28;20232;-87
2021/12/15 00:08:26;;;;;;;4.53;4.13;;;;;;;17.09;47.87;98207.97;4921004;28;20222;-87
2021/12/15 00:35:09;;;;;;;5.93;4.67;;;;;;;17.39;47.62;98276.66;4971116;28;20234;-88
2021/12/15 00:37:36;;;;;;;5.00;4.50;;;;;;;18.15;47.50;98404.81;4931479;28;20204;-86
2021/12/15 00:40:12;;;;;;;5.10;4.70;;;;;;;15.97;47.63;98059.28;4964917;28;20602;-85
2021/12/15 00:42:39;;;;;;;5.10;4.60;;;;;;;16.81;47.44;98153.88;4959823;28;20399;-88
2021/12/15 00:45:10;;;;;;;5.13;4.60;;;;;;;18.30;47.58;98406.47;4969220;28;20218;-87
2021/12/15 00:47:39;;;;;;;4.93;4.50;;;;;;;17.07;47.57;98251.06;4952953;28;20206;-86
2021/12/15 00:50:08;;;;;;;4.87;4.37;;;;;;;18.33;47.43;98466.06;4971646;28;20205;-88
2021/12/15 00:52:42;;;;;;;5.00;4.50;;;;;;;18.14;47.44;98419.97;4961089;28;20214;-86
2021/12/15 00:55:11;;;;;;;5.47;4.50;;;;;;;16.97;47.47;98199.66;4967264;28;20603;-85
2021/12/15 00:57:37;;;;;;;5.00;4.57;;;;;;;16.68;47.45;98159.00;4972988;28;20599;-86
2021/12/15 01:00:10;;;;;;;5.10;4.60;;;;;;;19.07;47.65;98600.16;4964339;28;20752;-87
2021/12/15 01:02:37;;;;;;;5.00;4.50;;;;;;;19.57;47.66;98653.16;4948325;28;20218;-86
2021/12/15 01:05:05;;;;;;;4.93;4.43;;;;;;;18.93;47.61;98542.47;4950504;28;20786;-85
2021/12/15 01:07:32;;;;;;;4.87;4.37;;;;;;;17.45;47.38;98314.28;4956928;28;20686;-87
2021/12/15 01:10:05;;;;;;;4.80;4.30;;;;;;;16.71;47.59;98143.97;4969562;28;20245;-87
2021/12/15 01:36:38;;;;;;;5.23;4.73;;;;;;;16.77;47.41;98200.16;5198718;23;20234;-87
2021/12/15 01:39:05;;;;;;;5.07;4.57;;;;;;;16.86;47.47;98200.69;4952716;28;20660;-86
2021/12/15 01:41:35;;;;;;;5.17;4.67;;;;;;;18.14;47.38;98413.25;4963631;28;20206;-88
2021/12/15 01:46:55;;;;;;;4.80;4.33;;;;;;;16.28;46.89;98070.41;4970647;28;20199;-86
2021/12/15 01:49:42;;;;;;;4.67;4.27;;;;;;;19.29;47.41;98586.16;4962535;28;20202;-87
2021/12/15 01:52:19;;;;;;;4.53;4.13;;;;;;;17.15;47.38;98241.34;4990434;28;20207;-86
2021/12/15 01:54:54;;;;;;;5.33;4.40;;;;;;;16.54;47.30;98121.81;4973884;28;20226;-86
2021/12/15 01:57:27;;;;;;;4.70;4.30;;;;;;;15.59;47.05;97926.91;4972664;28;20230;-88
2021/12/15 01:59:57;;;;;;;5.47;4.97;;;;;;;16.03;47.16;97997.91;4969461;28;21083;-92
2021/12/15 02:26:44;;;;;;;4.77;4.37;;;;;;;19.27;47.05;98564.81;4988945;28;20288;-86
2021/12/15 02:29:16;;;;;;;5.00;4.50;;;;;;;17.65;47.04;98275.63;4943265;28;20210;-84
2021/12/15 02:32:10;;;;;;;4.40;4.00;;;;;;;16.64;47.03;98155.41;4944036;28;20210;-86
2021/12/15 02:37:32;;;;;;;5.07;4.43;;;;;;;19.14;47.04;98547.06;4919508;28;20213;-87
2021/12/15 02:40:03;;;;;;;5.30;4.80;;;;;;;14.97;46.94;97825.19;4968688;28;20206;-88
2021/12/15 02:42:36;;;;;;;4.67;4.27;;;;;;;16.19;46.78;98023.34;4965464;28;20213;-87
2021/12/15 02:45:08;;;;;;;4.87;4.40;;;;;;;16.53;47.05;98087.09;4967948;28;20682;-86
2021/12/15 02:47:34;;;;;;;4.80;4.40;;;;;;;17.81;46.97;98340.13;4963381;28;20688;-86
2021/12/15 02:50:24;;;;;;;4.77;4.27;;;;;;;17.52;47.36;98278.25;4975866;28;20202;-86
2021/12/15 02:52:54;;;;;;;4.50;4.10;;;;;;;17.53;47.22;98288.50;4980737;28;20210;-86
2021/12/15 02:55:30;;;;;;;4.77;4.37;;;;;;;16.52;46.96;98129.31;4976037;28;20261;-86
2021/12/15 02:57:58;;;;;;;4.40;4.00;;;;;;;16.12;47.05;98049.16;4963517;28;20238;-86
2021/12/15 03:00:43;;;;;;;4.27;3.87;;;;;;;17.61;46.92;98287.28;4960302;28;20249;-86
2021/12/15 03:06:10;;;;;;;4.70;4.30;;;;;;;17.51;47.14;98282.47;4985133;28;20332;-86
2021/12/15 03:09:10;;;;;;;4.33;3.93;;;;;;;18.85;47.21;98496.19;4959840;28;20281;-86
2021/12/15 03:46:37;;;;;;;4.40;4.00;;;;;;;18.41;46.78;98452.09;4984303;28;20206;-86
2021/12/15 03:49:06;;;;;;;4.70;4.30;;;;;;;17.29;47.04;98245.56;4954658;28;20233;-85
2021/12/15 03:51:33;;;;;;;4.13;3.73;;;;;;;17.74;46.87;98296.47;4954174;28;20202;-86
2021/12/15 03:53:59;;;;;;;4.50;4.10;;;;;;;19.71;46.78;98656.44;4953378;28;20215;-86
2021/12/15 03:56:28;;;;;;;4.27;3.87;;;;;;;17.98;46.85;98357.22;4954714;28;20222;-86
2021/12/15 03:58:56;;;;;;;5.17;4.67;;;;;;;16.96;46.83;98219.09;4955935;28;20371;-86
2021/12/15 04:01:23;;;;;;;4.20;3.80;;;;;;;17.57;46.91;98271.75;4940391;28;20207;-85
2021/12/15 04:03:51;;;;;;;4.47;4.07;;;;;;;18.59;47.00;98449.72;4936576;28;20223;-86
2021/12/15 04:06:21;;;;;;;4.43;4.03;;;;;;;20.47;46.97;98820.63;4938751;28;20645;-86
2021/12/15 04:08:48;;;;;;;4.77;4.37;;;;;;;17.61;46.85;98312.69;4940869;28;20202;-86
2021/12/15 04:11:17;;;;;;;4.10;3.80;;;;;;;15.71;46.91;97972.34;4938238;28;20206;-89
2021/12/15 04:13:47;;;;;;;4.50;4.10;;;;;;;17.54;46.81;98274.13;4956423;28;20216;-87
2021/12/15 04:19:07;;;;;;;4.00;3.70;;;;;;;17.52;46.97;98321.44;4961787;28;20281;-87
2021/12/15 04:21:37;;;;;;;4.57;4.17;;;;;;;18.69;47.01;98515.63;4956334;28;20222;-86
2021/12/15 04:24:05;;;;;;;4.60;4.20;;;;;;;16.86;47.13;98182.91;4955919;28;20210;-86
2021/12/15 04:26:32;;;;;;;4.63;4.23;;;;;;;16.54;47.22;98137.91;4971172;28;20576;-86
2021/12/15 04:28:59;;;;;;;4.20;3.80;;;;;;;18.33;47.04;98437.16;4942116;28;20213;-87
2021/12/15 04:31:28;;;;;;;4.57;4.17;;;;;;;17.72;47.09;98326.91;4945251;28;20210;-86
2021/12/15 04:34:04;;;;;;;4.50;4.10;;;;;;;17.81;46.99;98354.50;4956437;28;20217;-85
2021/12/15 04:36:34;;;;;;;4.30;3.90;;;;;;;17.84;46.88;98368.28;4959375;28;20257;-87
2021/12/15 04:39:05;;;;;;;4.40;4.00;;;;;;;17.65;47.09;98346.78;4943716;28;20218;-86
2021/12/15 04:41:32;;;;;;;4.13;3.83;;;;;;;16.53;47.05;98133.63;4955809;28;20265;-86
2021/12/15 04:44:09;;;;;;;4.20;3.83;;;;;;;18.21;47.05;98417.88;4960538;28;20211;-87
2021/12/15 04:46:38;;;;;;;4.67;4.27;;;;;;;17.71;47.17;98331.91;4938790;28;20258;-88
2021/12/15 04:49:08;;;;;;;4.30;3.90;;;;;;;17.28;46.84;98270.06;4940526;28;20207;-87
2021/12/15 04:51:35;;;;;;;4.53;4.13;;;;;;;16.00;47.10;98023.09;4940017;28;20258;-86
2021/12/15 04:54:02;;;;;;;5.20;4.50;;;;;;;19.32;47.16;98627.13;4940482;28;20210;-87
2021/12/15 04:56:29;;;;;;;4.53;4.13;;;;;;;18.13;47.36;98456.41;4940525;28;20223;-89
2021/12/15 04:58:55;;;;;;;4.70;4.30;;;;;;;15.80;47.28;98029.50;4956763;28;20202;-86
2021/12/15 05:01:26;;;;;;;4.10;3.70;;;;;;;18.77;47.31;98534.78;4940341;28;20194;-88
2021/12/15 05:03:53;;;;;;;4.20;3.90;;;;;;;17.79;47.38;98384.91;4963342;28;20211;-87
2021/12/15 05:06:24;;;;;;;4.17;3.77;;;;;;;17.76;47.39;98392.38;4941005;28;20557;-87
2021/12/15 05:08:57;;;;;;;4.27;3.93;;;;;;;16.52;47.56;98167.38;4939900;28;20206;-87
2021/12/15 05:11:35;;;;;;;4.00;3.70;;;;;;;17.79;47.57;98394.19;4938233;28;20214;-87
2021/12/15 05:14:14;;;;;;;4.63;4.23;;;;;;;17.48;47.55;98339.84;4946004;28;20222;-88
2021/12/15 05:16:41;;;;;;;3.83;3.53;;;;;;;16.18;47.82;98151.81;4950924;28;20630;-87
2021/12/15 05:19:07;;;;;;;3.80;3.50;;;;;;;18.75;47.73;98562.69;4945071;28;20203;-87
2021/12/15 05:21:34;;;;;;;4.00;3.70;;;;;;;18.35;47.88;98492.44;4954006;28;20712;-86
2021/12/15 05:24:11;;;;;;;4.10;3.80;;;;;;;16.77;47.78;98215.38;4954639;28;20269;-88
2021/12/15 05:26:38;;;;;;;4.90;4.37;;;;;;;19.27;47.99;98674.41;4953501;28;20254;-86
2021/12/15 05:29:05;;;;;;;4.53;4.13;;;;;;;18.27;47.62;98508.06;4935629;28;20218;-88
2021/12/15 05:31:42;;;;;;;4.53;4.13;;;;;;;18.86;47.91;98632.91;4943398;28;20219;-86
2021/12/15 05:34:09;;;;;;;3.53;3.23;;;;;;;16.64;47.94;98251.00;4945933;28;20227;-83
2021/12/15 05:36:37;;;;;;;4.77;3.90;;;;;;;19.21;48.05;98684.22;4945250;28;20281;-86
2021/12/15 05:39:06;;;;;;;4.50;4.10;;;;;;;17.85;47.90;98468.28;4959464;28;20202;-85
2021/12/15 05:41:36;;;;;;;4.07;3.70;;;;;;;18.54;48.05;98599.66;4956818;28;20614;-86
2021/12/15 05:46:47;;;;;;;3.80;3.50;;;;;;;19.98;47.84;98812.72;5014656;28;20214;-90
2021/12/15 05:49:14;;;;;;;4.30;3.60;;;;;;;19.73;48.22;98772.19;4963639;28;20284;-92
2021/12/15 05:51:40;;;;;;;3.60;3.30;;;;;;;19.77;48.19;98781.78;4958067;28;20684;-90
2021/12/15 05:54:07;;;;;;;4.07;3.67;;;;;;;19.71;48.08;98779.78;4964432;28;20293;-90
2021/12/15 05:56:38;;;;;;;3.60;3.30;;;;;;;19.59;48.28;98757.78;4964774;28;20657;-90
2021/12/15 05:59:05;;;;;;;4.03;3.63;;;;;;;19.87;48.19;98809.56;4949754;28;20258;-90
2021/12/15 06:01:32;;;;;;;3.53;3.23;;;;;;;19.75;48.01;98793.59;4954328;28;20222;-90
2021/12/15 06:04:00;;;;;;;4.10;3.73;;;;;;;19.63;47.93;98781.00;4961137;28;20217;-90
2021/12/15 06:06:28;;;;;;;3.80;3.50;;;;;;;19.75;48.28;98804.66;4956737;28;20310;-89
2021/12/15 06:08:55;;;;;;;3.70;3.40;;;;;;;19.79;47.93;98809.16;4957763;28;20280;-89
2021/12/15 06:11:21;;;;;;;3.80;3.50;;;;;;;19.76;48.03;98815.72;4942522;28;20712;-88
2021/12/15 06:13:50;;;;;;;6.40;3.83;;;;;;;19.75;47.81;98814.84;4965137;28;20374;-89
2021/12/15 06:16:18;;;;;;;3.70;3.40;;;;;;;19.81;48.17;98822.84;4959654;28;20296;-89
2021/12/15 06:18:45;;;;;;;3.80;3.50;;;;;;;19.61;48.20;98794.47;4964803;28;20206;-90
2021/12/15 06:21:12;;;;;;;4.47;4.07;;;;;;;19.80;48.10;98833.84;4958836;28;20301;-90
2021/12/15 06:23:39;;;;;;;3.80;3.50;;;;;;;19.67;47.96;98816.09;4956105;28;20203;-89
2021/12/15 06:26:06;;;;;;;3.70;3.40;;;;;;;19.65;48.19;98809.13;4941081;28;20306;-91
2021/12/15 06:28:33;;;;;;;3.70;3.40;;;;;;;19.98;48.17;98871.41;4958672;28;20207;-89
2021/12/15 06:31:00;;;;;;;4.00;3.70;;;;;;;19.70;48.17;98829.03;4959340;28;20226;-89
2021/12/15 06:33:27;;;;;;;4.20;3.90;;;;;;;19.73;48.13;98830.88;4970334;28;20198;-89
2021/12/15 06:35:57;;;;;;;4.47;4.07;;;;;;;19.74;49.02;98836.06;4963848;28;20254;-90
2021/12/15 06:38:35;;;;;;;6.93;6.23;;;;;;;19.47;47.63;98786.03;4952134;28;20267;-90
2021/12/15 06:41:44;;;;;;;13.60;12.10;;;;;;;19.51;44.10;98800.69;4956423;28;20253;-91
2021/12/15 06:44:44;;;;;;;17.23;14.43;;;;;;;19.70;42.79;98835.78;4960893;28;20230;-89
2021/12/15 06:59:04;;;;;;;18.70;14.27;;;;;;;19.31;42.57;98819.09;4978177;28;20297;-88
2021/12/15 07:01:31;;;;;;;15.60;14.00;;;;;;;19.46;43.43;98849.69;4955590;28;20289;-89
2021/12/15 07:03:58;;;;;;;14.70;13.07;;;;;;;19.38;42.78;98833.06;4956825;28;20795;-89
2021/12/15 07:06:24;;;;;;;15.07;13.47;;;;;;;19.37;43.70;98829.66;4963351;28;20243;-88
2021/12/15 07:08:51;;;;;;;17.43;13.50;;;;;;;19.59;44.47;98881.09;4940750;28;20207;-88
2021/12/15 07:11:19;;;;;;;20.40;12.77;;;;;;;19.62;44.74;98888.91;4948778;28;20865;-88
2021/12/15 07:13:46;;;;;;;14.80;13.20;;;;;;;19.47;44.53;98862.53;4970230;28;20223;-89
2021/12/15 07:16:12;;;;;;;18.07;12.80;;;;;;;19.84;43.88;98940.38;4955684;28;20349;-89
2021/12/15 07:18:51;;;;;;;16.70;12.57;;;;;;;19.79;44.41;98935.81;4966379;28;20602;-89
2021/12/15 07:21:22;;;;;;;15.07;13.17;;;;;;;19.53;43.91;98893.47;4956277;28;20395;-90
2021/12/15 07:23:51;;;;;;;16.77;14.13;;;;;;;19.75;43.81;98924.53;4948886;28;20246;-89
2021/12/15 07:26:18;;;;;;;16.70;13.10;;;;;;;19.57;44.13;98904.75;4967967;28;20524;-87
2021/12/15 07:28:44;;;;;;;15.33;13.00;;;;;;;19.67;44.27;98920.69;4968823;28;20285;-88
2021/12/15 07:31:12;;;;;;;13.77;12.17;;;;;;;19.76;44.52;98928.88;4970470;28;20211;-87
2021/12/15 07:33:38;;;;;;;14.00;12.07;;;;;;;19.73;44.67;98930.34;4952709;28;20199;-89
2021/12/15 07:36:05;;;;;;;13.93;12.10;;;;;;;19.68;45.10;98916.44;4958971;28;20230;-90
2021/12/15 07:38:34;;;;;;;13.43;10.80;;;;;;;19.49;45.29;98885.56;4962442;28;20293;-90
2021/12/15 07:41:04;;;;;;;13.07;11.47;;;;;;;19.74;45.41;98925.34;4969064;28;20245;-88
2021/12/15 07:43:30;;;;;;;15.87;11.93;;;;;;;19.82;45.62;98941.97;4953015;28;20207;-88
2021/12/15 07:46:01;;;;;;;12.10;10.53;;;;;;;19.68;45.52;98911.34;4952649;28;20321;-89
2021/12/15 07:48:36;;;;;;;15.30;10.30;;;;;;;19.12;45.72;98838.25;4981441;28;20196;-94
2021/12/15 07:51:06;;;;;;;11.80;10.57;;;;;;;18.81;46.02;98781.19;4987849;28;20212;-94
2021/12/15 07:53:39;;;;;;;12.37;10.43;;;;;;;18.82;45.84;98762.53;4992888;28;20254;-95
2021/12/15 08:01:30;;;;;;;14.07;10.40;;;;;;;18.30;45.97;98668.56;4211650;26;20247;-95
2021/12/15 08:03:57;;;;;;;11.80;10.37;;;;;;;18.93;46.14;98799.72;4967164;28;20175;-94
2021/12/15 08:06:25;;;;;;;10.70;9.57;;;;;;;18.77;46.09;98764.81;4966525;28;20176;-95
2021/12/15 08:08:53;;;;;;;12.43;10.87;;;;;;;18.61;46.42;98723.06;4974558;28;20202;-95
2021/12/15 08:11:20;;;;;;;11.50;10.30;;;;;;;18.53;46.03;98709.91;5039799;23;20219;-94
2021/12/15 08:13:47;;;;;;;11.33;8.90;;;;;;;18.60;45.97;98717.13;4985728;28;20252;-95
2021/12/15 08:16:16;;;;;;;10.33;9.00;;;;;;;18.75;45.76;98737.50;4979857;28;20214;-95
2021/12/15 08:18:43;;;;;;;11.50;9.93;;;;;;;18.81;46.35;98748.06;4967486;28;20207;-95
2021/12/15 08:21:10;;;;;;;10.57;9.37;;;;;;;18.82;46.05;98760.88;4966304;28;20176;-94
2021/12/15 08:23:37;;;;;;;11.30;9.50;;;;;;;19.12;46.18;98811.09;4998528;28;20240;-95
2021/12/15 08:26:04;;;;;;;10.90;9.80;;;;;;;19.18;45.88;98811.47;4970918;28;20204;-95
2021/12/15 08:28:31;;;;;;;11.07;9.33;;;;;;;19.23;45.92;98814.28;4994609;28;20167;-95
2021/12/15 08:30:59;;;;;;;10.17;9.17;;;;;;;18.75;46.00;98729.88;4994519;28;20254;-95
2021/12/15 08:33:26;;;;;;;9.87;8.87;;;;;;;19.06;45.90;98794.56;4980184;28;20167;-95
2021/12/15 08:35:58;;;;;;;10.30;9.13;;;;;;;19.21;45.85;98808.22;4966929;28;20199;-96
2021/12/15 08:38:26;;;;;;;9.00;8.10;;;;;;;19.44;45.86;98853.81;4986853;28;20352;-95
2021/12/15 08:40:56;;;;;;;9.53;8.53;;;;;;;19.01;45.97;98763.72;5044272;23;20244;-95
2021/12/15 08:43:24;;;;;;;11.00;9.40;;;;;;;19.12;45.82;98779.63;5022442;28;20167;-95
2021/12/15 08:46:14;;;;;;;10.90;9.20;;;;;;;18.54;45.80;98677.69;5025052;23;20274;-95
2021/12/15 08:48:41;;;;;;;9.30;8.40;;;;;;;19.17;45.94;98794.44;4951601;29;20171;-95
2021/12/15 08:53:43;;;;;;;9.40;8.50;;;;;;;20.30;45.90;98978.78;5088544;23;20296;-89
2021/12/15 08:56:10;;;;;;;9.10;8.20;;;;;;;20.17;46.05;98949.16;4978390;28;20321;-90
2021/12/15 08:58:36;;;;;;;8.67;7.87;;;;;;;20.19;45.95;98954.34;4991101;28;20224;-89
2021/12/15 09:01:04;;;;;;;8.87;7.87;;;;;;;20.16;45.75;98944.81;4984499;28;20202;-89
2021/12/15 09:03:31;;;;;;;8.90;8.10;;;;;;;19.98;45.97;98916.53;4983283;28;21092;-87
2021/12/15 09:05:58;;;;;;;10.17;8.00;;;;;;;19.98;45.81;98924.19;4970412;28;20309;-90
2021/12/15 09:08:25;;;;;;;8.40;7.60;;;;;;;20.25;45.85;98975.09;4987581;28;20229;-90
2021/12/15 09:10:54;;;;;;;8.73;7.83;;;;;;;20.28;45.88;98975.28;4985510;28;20629;-90
2021/12/15 09:13:21;;;;;;;8.40;7.60;;;;;;;19.96;45.86;98920.66;4992212;28;20230;-90
2021/12/15 10:17:21;;;;;;;6.53;5.93;;;;;;;20.31;45.99;98950.78;4981839;28;20680;-89
2021/12/15 10:18:08;;;;;;;6.67;6.03;;;;;;;20.17;46.01;98925.28;4958419;28;20321;-89
2021/12/15 10:20:37;;;;;;;6.57;5.97;;;;;;;20.36;46.03;98956.16;4957187;28;20740;-90
2021/12/15 10:23:12;;;;;;;6.80;6.10;;;;;;;20.37;45.97;98956.22;4939289;28;20285;-90
2021/12/15 10:25:43;;;;;;;6.90;6.20;;;;;;;20.43;45.94;98971.91;4939364;28;20314;-89
2021/12/15 10:28:14;;;;;;;6.77;6.03;;;;;;;20.30;46.21;98951.59;4970716;28;20257;-90
2021/12/15 10:30:43;;;;;;;9.47;5.83;;;;;;;20.39;46.10;98962.31;4939001;28;20688;-88
2021/12/15 10:33:10;;;;;;;8.70;5.70;;;;;;;20.47;46.14;98978.06;4946636;28;20199;-89
2021/12/15 10:35:52;;;;;;;6.27;5.67;;;;;;;20.32;46.17;98944.91;4970444;28;20317;-89
2021/12/15 10:38:29;;;;;;;6.47;5.87;;;;;;;20.22;46.12;98927.28;4952716;28;20285;-89
2021/12/15 10:41:01;;;;;;;6.60;5.90;;;;;;;20.44;46.13;98963.47;4944055;28;20732;-89
2021/12/15 10:43:40;;;;;;;6.17;5.57;;;;;;;20.07;46.25;98900.88;4969430;28;20226;-89
2021/12/15 10:46:16;;;;;;;6.83;6.20;;;;;;;20.37;46.30;98957.94;4946503;28;20696;-95
2021/12/15 10:49:03;;;;;;;6.07;5.53;;;;;;;18.47;46.20;98632.31;4981994;28;20190;-95
2021/12/15 11:02:32;;;;;;;5.67;5.17;;;;;;;20.39;46.39;98951.22;4283972;26;20178;-96
2021/12/15 11:05:08;;;;;;;6.10;5.60;;;;;;;20.39;46.48;98947.00;4987685;28;20179;-94
2021/12/15 11:07:52;;;;;;;5.70;5.20;;;;;;;20.40;46.38;98942.78;4988226;28;20205;-95
2021/12/15 11:10:37;;;;;;;6.50;5.70;;;;;;;19.39;46.40;98768.56;4988058;28;20163;-95
2021/12/15 11:13:25;;;;;;;6.47;5.87;;;;;;;18.94;46.49;98687.75;4972537;28;20182;-95
2021/12/15 11:15:54;;;;;;;6.20;5.60;;;;;;;19.43;46.46;98770.47;5153105;23;20202;-95
2021/12/15 11:18:36;;;;;;;5.57;5.07;;;;;;;20.18;46.64;98904.94;5016362;23;20225;-95
2021/12/15 11:21:07;;;;;;;5.90;5.30;;;;;;;18.98;46.62;98688.81;5008113;28;20162;-96
2021/12/15 11:23:38;;;;;;;5.77;5.27;;;;;;;20.12;46.23;98888.38;5004325;28;20177;-96
2021/12/15 11:26:16;;;;;;;5.80;5.30;;;;;;;19.20;46.38;98728.34;5005644;28;20197;-95
2021/12/15 11:28:47;;;;;;;5.87;5.03;;;;;;;19.51;46.26;98767.56;5038722;28;20166;-95
2021/12/15 11:31:17;;;;;;;5.67;5.17;;;;;;;19.49;46.39;98768.28;5007687;28;20169;-95
2021/12/15 11:33:45;;;;;;;5.60;5.10;;;;;;;19.35;46.43;98730.91;5059658;28;20170;-96
2021/12/15 11:36:33;;;;;;;5.50;5.00;;;;;;;19.33;45.86;98723.19;5024930;28;20297;-95
2021/12/15 11:41:52;;;;;;;5.00;4.60;;;;;;;18.61;46.16;98594.13;5064873;23;20241;-94
2021/12/15 11:44:22;;;;;;;6.00;5.40;;;;;;;19.40;46.12;98732.94;4979002;23;20211;-95
2021/12/15 11:47:00;;;;;;;5.40;4.90;;;;;;;20.57;46.13;98913.97;4940164;29;20184;-94
2021/12/15 11:49:30;;;;;;;5.23;4.80;;;;;;;19.50;46.06;98734.31;4942406;29;20185;-94
2021/12/15 11:52:06;;;;;;;5.97;5.37;;;;;;;20.59;46.25;98912.34;4933654;29;20177;-94
2021/12/15 11:54:40;;;;;;;6.17;5.57;;;;;;;19.90;46.05;98797.84;4938871;28;20211;-94
2021/12/15 11:57:22;;;;;;;5.20;4.70;;;;;;;20.61;46.06;98926.09;4957270;28;20212;-94
2021/12/15 11:59:50;;;;;;;5.30;4.80;;;;;;;20.08;46.00;98840.50;4953091;28;20184;-95
2021/12/15 12:02:28;;;;;;;5.70;5.20;;;;;;;19.00;46.15;98642.22;4941328;28;20252;-94
2021/12/15 12:05:04;;;;;;;5.73;5.10;;;;;;;19.63;46.19;98754.63;4922512;29;20205;-95
2021/12/15 12:07:46;;;;;;;6.30;5.27;;;;;;;20.26;46.01;98861.97;4941573;28;20199;-95
2021/12/15 12:10:19;;;;;;;5.50;5.00;;;;;;;20.26;46.01;98862.88;4937294;28;20211;-95
2021/12/15 12:12:53;;;;;;;4.97;4.57;;;;;;;19.27;46.11;98681.19;4945746;28;20169;-95
2021/12/15 12:15:22;;;;;;;5.57;5.07;;;;;;;19.65;46.02;98746.28;4962521;23;20208;-95
2021/12/15 12:17:51;;;;;;;5.73;5.23;;;;;;;19.65;45.94;98750.47;4947971;29;20219;-95
2021/12/15 12:20:21;;;;;;;5.40;4.93;;;;;;;19.53;45.78;98729.41;4963639;29;20177;-95
2021/12/15 12:22:49;;;;;;;5.40;4.90;;;;;;;19.43;45.96;98688.91;4964252;29;20177;-96
2021/12/15 12:25:24;;;;;;;5.50;5.00;;;;;;;20.13;46.09;98822.13;4942053;29;20315;-90
2021/12/15 12:27:54;;;;;;;5.17;4.77;;;;;;;20.31;46.08;98846.09;4915569;29;20632;-91
2021/12/15 12:30:23;;;;;;;5.50;5.00;;;;;;;20.53;46.09;98882.25;4930148;29;20287;-89
2021/12/15 12:32:51;;;;;;;5.57;5.07;;;;;;;20.61;45.96;98898.00;4930739;29;20405;-90
2021/12/15 12:35:20;;;;;;;4.83;4.43;;;;;;;20.49;46.11;98875.19;4913595;29;20773;-89
2021/12/15 12:37:57;;;;;;;4.87;4.47;;;;;;;20.27;45.98;98846.75;4933819;28;20212;-95
2021/12/15 12:40:32;;;;;;;5.03;4.63;;;;;;;20.29;46.01;98855.38;4957676;28;20202;-94
2021/12/15 12:43:00;;;;;;;5.13;4.70;;;;;;;19.02;45.87;98655.94;5090841;23;20243;-94
2021/12/15 12:45:37;;;;;;;4.87;4.47;;;;;;;19.61;45.96;98754.56;4945006;28;20230;-94
2021/12/15 12:48:36;;;;;;;4.73;4.33;;;;;;;19.96;46.13;98802.44;4963269;28;20183;-95
2021/12/15 12:59:43;;;;;;;4.87;4.43;;;;;;;19.09;46.04;98652.94;4968832;28;20187;-95
2021/12/15 13:02:39;;;;;;;4.97;4.50;;;;;;;20.60;46.04;98909.88;4948015;28;20183;-95
2021/12/15 13:05:26;;;;;;;5.20;4.70;;;;;;;19.24;46.17;98670.75;4956731;29;20180;-95
2021/12/15 13:07:55;;;;;;;5.20;4.80;;;;;;;18.89;46.15;98612.72;4948916;28;20236;-94
2021/12/15 13:10:48;;;;;;;4.80;4.40;;;;;;;19.13;46.25;98654.00;4964987;28;20176;-94
2021/12/15 13:13:20;;;;;;;4.93;4.50;;;;;;;20.63;46.10;98914.28;4974630;28;20183;-94
2021/12/15 13:16:43;;;;;;;;;;;;;;;;;;;;;
2021/12/15 13:23:49;;;;;;;4.73;4.33;;;;;;;19.57;46.25;98733.91;4933453;29;20369;-95
2021/12/15 13:29:51;;;;;;;4.70;4.30;;;;;;;19.40;46.10;98706.56;4981461;28;20168;-94
2021/12/15 13:32:18;;;;;;;5.50;4.37;;;;;;;19.28;45.98;98670.19;4978023;28;20268;-95
2021/12/15 13:34:48;;;;;;;4.90;4.40;;;;;;;18.94;46.13;98602.78;4945580;28;20238;-95
2021/12/15 13:37:48;;;;;;;5.37;4.87;;;;;;;20.64;45.97;98899.06;4989298;23;20207;-94
2021/12/15 13:40:15;;;;;;;5.40;4.90;;;;;;;19.90;46.24;98774.03;5035980;28;20184;-94
2021/12/15 13:42:51;;;;;;;5.00;4.60;;;;;;;19.17;46.20;98661.91;4975486;28;20195;-95
2021/12/15 13:45:29;;;;;;;5.77;5.20;;;;;;;20.22;46.04;98832.84;5009027;28;20205;-94
2021/12/15 13:47:56;;;;;;;5.27;4.77;;;;;;;19.50;46.16;98698.63;5008319;28;20194;-93
2021/12/15 13:50:29;;;;;;;4.70;4.30;;;;;;;19.19;46.00;98650.09;5015307;28;20212;-95
2021/12/15 13:52:58;;;;;;;4.63;4.23;;;;;;;19.21;46.01;98652.75;5002039;28;20244;-94
2021/12/15 14:14:22;;;;;;;5.23;4.73;;;;;;;19.52;46.10;98695.38;5033278;28;20202;-95
2021/12/15 14:19:38;;;;;;;5.30;4.80;;;;;;;19.69;45.73;98734.56;1474708;26;20246;-89
2021/12/15 14:22:07;;;;;;;5.90;5.40;;;;;;;19.96;45.62;98769.25;4970238;28;20210;-87
2021/12/15 14:24:36;;;;;;;6.00;5.40;;;;;;;19.95;45.52;98768.38;4970777;28;20355;-88
2021/12/15 14:27:06;;;;;;;6.80;5.27;;;;;;;20.53;45.73;98866.03;4966232;28;20297;-88
2021/12/15 14:29:34;;;;;;;5.80;5.20;;;;;;;20.31;45.91;98832.47;4978319;28;20210;-88
2021/12/15 14:32:02;;;;;;;5.13;4.73;;;;;;;20.32;45.88;98837.66;4975413;28;20246;-88
2021/12/15 14:34:34;;;;;;;4.67;4.27;;;;;;;20.35;46.06;98836.94;4980539;28;20202;-89
2021/12/15 14:37:11;;;;;;;5.17;4.67;;;;;;;20.31;45.80;98835.03;4956445;28;20241;-89
2021/12/15 14:39:39;;;;;;;4.97;4.57;;;;;;;20.55;45.86;98883.22;4969920;28;20305;-89
2021/12/15 14:42:16;;;;;;;4.50;4.10;;;;;;;20.26;46.29;98834.78;4956683;28;20250;-88
2021/12/15 14:44:45;;;;;;;4.70;4.30;;;;;;;20.18;46.31;98832.59;4966854;28;20225;-89
2021/12/15 14:47:16;;;;;;;5.10;4.60;;;;;;;20.39;46.17;98872.06;4975253;28;20302;-89
2021/12/15 14:49:56;;;;;;;4.47;4.07;;;;;;;20.55;46.09;98913.88;4971154;28;20647;-90
2021/12/15 14:52:28;;;;;;;4.90;4.20;;;;;;;20.38;46.44;98883.06;4990053;28;20288;-89
2021/12/15 14:54:56;;;;;;;4.43;4.03;;;;;;;20.45;46.29;98892.81;4964863;28;20329;-89
2021/12/15 14:57:24;;;;;;;4.63;4.20;;;;;;;20.23;46.26;98860.16;4947973;28;20678;-89
2021/12/15 15:00:11;;;;;;;4.90;4.50;;;;;;;20.49;46.63;98910.94;4969894;28;20333;-89
2021/12/15 15:02:41;;;;;;;4.80;4.37;;;;;;;20.25;46.53;98876.41;4974508;28;20237;-89
2021/12/15 15:05:12;;;;;;;4.10;3.80;;;;;;;20.10;46.68;98844.88;4972613;28;20229;-89
2021/12/15 15:07:44;;;;;;;4.80;4.40;;;;;;;20.21;46.57;98874.50;4968915;28;20226;-88
2021/12/15 15:10:16;;;;;;;4.27;3.87;;;;;;;20.33;46.63;98910.91;4985192;28;20262;-90
2021/12/15 15:12:42;;;;;;;4.67;4.27;;;;;;;20.18;46.52;98879.41;4942690;28;20223;-88
2021/12/15 15:15:11;;;;;;;4.90;4.50;;;;;;;20.32;46.69;98916.81;4961513;28;20357;-89
2021/12/15 15:17:55;;;;;;;4.90;4.10;;;;;;;20.24;46.58;98897.63;4983986;28;20309;-89
2021/12/15 15:20:30;;;;;;;4.20;3.90;;;;;;;20.25;46.67;98901.94;4954484;28;20288;-89
2021/12/15 15:23:02;;;;;;;4.67;4.27;;;;;;;20.27;46.72;98910.56;4949804;28;20221;-88
2021/12/15 15:25:31;;;;;;;4.47;4.07;;;;;;;20.18;46.77;98901.50;4987669;28;20222;-89
2021/12/15 15:28:01;;;;;;;4.73;4.13;;;;;;;20.31;46.83;98938.03;4968895;28;20286;-89
2021/12/15 15:30:30;;;;;;;4.20;3.80;;;;;;;20.13;46.85;98901.25;4954000;28;20249;-89
2021/12/15 15:32:58;;;;;;;4.13;3.83;;;;;;;19.95;46.72;98870.44;4969964;28;20198;-89
2021/12/15 15:35:30;;;;;;;4.43;4.03;;;;;;;20.20;46.79;98922.91;4947190;28;20262;-89
2021/12/15 15:37:59;;;;;;;4.57;4.17;;;;;;;20.20;46.80;98917.78;4950596;28;20694;-89
2021/12/15 15:40:29;;;;;;;4.03;3.73;;;;;;;20.33;46.80;98941.53;4968816;28;20231;-89
2021/12/15 15:43:05;;;;;;;3.80;3.50;;;;;;;19.88;46.95;98870.00;4962205;28;20207;-91
2021/12/15 15:45:35;;;;;;;4.30;4.00;;;;;;;20.29;46.97;98934.53;4957762;28;20297;-89
2021/12/15 15:48:04;;;;;;;4.60;4.20;;;;;;;20.10;47.14;98903.59;4967103;28;20284;-90
2021/12/15 15:50:31;;;;;;;3.93;3.63;;;;;;;19.89;46.92;98872.66;4976069;28;20198;-89
2021/12/15 15:52:58;;;;;;;4.43;4.03;;;;;;;20.25;46.93;98934.25;4952029;28;20953;-90
2021/12/15 15:55:26;;;;;;;4.30;3.93;;;;;;;20.15;47.01;98917.53;4957557;28;20258;-91
2021/12/15 15:57:55;;;;;;;4.13;3.80;;;;;;;20.30;47.29;98948.13;4955043;28;20927;-90
2021/12/15 16:00:26;;;;;;;4.80;4.40;;;;;;;19.29;46.97;98771.34;4983892;28;20195;-96
2021/12/15 16:02:57;;;;;;;4.10;3.80;;;;;;;19.21;46.96;98760.66;4981258;28;20189;-96
2021/12/15 16:05:24;;;;;;;4.13;3.73;;;;;;;19.06;47.13;98743.59;5033130;23;20207;-96